Time;durP1;ratioP1;P1;durP2;ratioP2;P2;SDS_P1;SDS_P2;PMS_P1;PMS_P2;Temp;Humidity;BMP_temperature;BMP_pressure;BME280_temperature;BME280_humidity;BME280_pressure;Samples;Min_cycle;Max_cycle;Signal;HPM_P1;HPM_P2
2023/05/06 00:01:44;;;;;;;7.53;4.88;;;;;;;;;;5133130;27;20045;-68
2023/05/06 00:04:11;;;;;;;7.20;4.63;;;;;;;;;;5133621;27;20047;-67
2023/05/06 00:06:40;;;;;;;8.27;5.20;;;;;;;;;;5133454;27;20055;-68
2023/05/06 00:09:07;;;;;;;7.50;4.97;;;;;;;;;;5133515;27;20509;-67
2023/05/06 00:11:34;;;;;;;9.98;5.18;;;;;;;;;;5133158;27;20099;-68
2023/05/06 00:14:00;;;;;;;7.85;4.40;;;;;;;;;;5133384;27;20487;-68
2023/05/06 00:16:27;;;;;;;6.28;5.03;;;;;;;;;;5133130;27;20051;-69
2023/05/06 00:18:54;;;;;;;6.80;5.03;;;;;;;;;;5126036;27;20044;-69
2023/05/06 00:21:21;;;;;;;7.10;4.68;;;;;;;;;;5112649;28;20415;-69
2023/05/06 00:23:49;;;;;;;8.10;5.20;;;;;;;;;;5112359;28;20491;-69
2023/05/06 00:26:16;;;;;;;5.97;4.85;;;;;;;;;;5112252;28;20052;-70
2023/05/06 00:28:43;;;;;;;6.38;5.00;;;;;;;;;;5112648;28;20055;-69
2023/05/06 00:31:09;;;;;;;8.13;4.68;;;;;;;;;;5112624;28;20092;-69
2023/05/06 00:33:36;;;;;;;6.63;5.25;;;;;;;;;;5112483;28;20051;-69
2023/05/06 00:36:04;;;;;;;6.72;4.85;;;;;;;;;;5112239;28;20054;-69
2023/05/06 00:38:30;;;;;;;6.70;5.43;;;;;;;;;;5111992;28;20059;-69
2023/05/06 00:40:58;;;;;;;9.32;5.35;;;;;;;;;;5111288;28;20465;-69
2023/05/06 00:43:25;;;;;;;7.95;5.50;;;;;;;;;;5112222;28;20435;-69
2023/05/06 00:45:52;;;;;;;9.60;6.22;;;;;;;;;;5112166;28;20079;-69
2023/05/06 00:48:19;;;;;;;6.78;5.60;;;;;;;;;;5112202;28;20048;-69
2023/05/06 00:50:46;;;;;;;8.40;5.78;;;;;;;;;;5112191;28;20112;-69
2023/05/06 00:53:13;;;;;;;8.18;5.68;;;;;;;;;;5111937;28;20055;-69
2023/05/06 00:55:40;;;;;;;7.25;5.57;;;;;;;;;;5112092;28;20561;-68
2023/05/06 00:58:08;;;;;;;6.68;4.88;;;;;;;;;;5111901;28;20175;-68
2023/05/06 01:00:35;;;;;;;6.97;5.18;;;;;;;;;;5111747;28;20075;-68
2023/05/06 01:03:02;;;;;;;6.78;5.53;;;;;;;;;;5111759;28;20051;-68
2023/05/06 01:05:32;;;;;;;7.03;5.20;;;;;;;;;;5112006;28;20446;-69
2023/05/06 01:08:07;;;;;;;8.48;5.38;;;;;;;;;;5111906;28;20147;-69
2023/05/06 01:10:42;;;;;;;8.48;5.53;;;;;;;;;;5111726;28;20079;-69
2023/05/06 01:13:16;;;;;;;7.15;4.40;;;;;;;;;;5111891;28;20050;-69
2023/05/06 01:15:45;;;;;;;8.73;4.47;;;;;;;;;;5111951;28;20051;-69
2023/05/06 01:18:16;;;;;;;5.90;4.43;;;;;;;;;;5111656;28;20092;-69
2023/05/06 01:20:48;;;;;;;7.32;4.15;;;;;;;;;;5112012;28;20514;-69
2023/05/06 01:23:16;;;;;;;6.57;4.53;;;;;;;;;;5112004;28;20152;-69
2023/05/06 01:25:43;;;;;;;7.35;4.82;;;;;;;;;;5111681;28;20044;-69
2023/05/06 01:28:11;;;;;;;6.10;4.55;;;;;;;;;;5111988;28;20100;-69
2023/05/06 01:30:46;;;;;;;8.45;5.75;;;;;;;;;;5111743;28;20139;-69
2023/05/06 01:33:21;;;;;;;8.45;5.90;;;;;;;;;;5111800;28;20047;-69
2023/05/06 01:35:55;;;;;;;9.07;6.80;;;;;;;;;;5111821;28;20389;-69
2023/05/06 01:38:31;;;;;;;10.93;7.40;;;;;;;;;;5111957;28;20492;-69
2023/05/06 01:41:00;;;;;;;9.07;6.10;;;;;;;;;;5111799;28;20112;-69
2023/05/06 01:43:33;;;;;;;9.05;5.53;;;;;;;;;;5112099;28;20044;-70
2023/05/06 01:46:01;;;;;;;8.98;5.80;;;;;;;;;;5111598;28;20052;-69
2023/05/06 01:48:30;;;;;;;8.25;5.82;;;;;;;;;;5111634;28;20103;-68
2023/05/06 01:50:57;;;;;;;7.88;6.53;;;;;;;;;;5111835;28;20102;-69
2023/05/06 01:53:25;;;;;;;8.98;6.72;;;;;;;;;;5114382;28;20074;-69
2023/05/06 01:55:52;;;;;;;9.05;6.72;;;;;;;;;;5115531;28;20044;-68
2023/05/06 01:58:21;;;;;;;9.52;6.63;;;;;;;;;;5115083;28;20043;-69
2023/05/06 02:00:47;;;;;;;10.80;6.93;;;;;;;;;;5115195;28;20567;-69
2023/05/06 02:03:14;;;;;;;11.45;7.55;;;;;;;;;;5115106;28;20487;-69
2023/05/06 02:05:41;;;;;;;10.95;7.13;;;;;;;;;;5115169;28;20412;-69
2023/05/06 02:08:08;;;;;;;10.15;7.28;;;;;;;;;;5115033;28;20048;-69
2023/05/06 02:10:36;;;;;;;9.25;6.50;;;;;;;;;;5115247;28;20043;-69
2023/05/06 02:13:02;;;;;;;8.27;6.22;;;;;;;;;;5115165;28;20465;-68
2023/05/06 02:15:29;;;;;;;8.15;5.93;;;;;;;;;;5132164;27;20051;-69
2023/05/06 02:17:57;;;;;;;8.15;5.80;;;;;;;;;;5135348;27;20093;-69
2023/05/06 02:20:25;;;;;;;9.60;6.82;;;;;;;;;;5135442;27;20066;-69
2023/05/06 02:22:51;;;;;;;9.73;6.30;;;;;;;;;;5135237;27;20046;-68
2023/05/06 02:25:18;;;;;;;7.50;5.80;;;;;;;;;;5133460;27;20043;-68
2023/05/06 02:27:46;;;;;;;7.13;5.80;;;;;;;;;;5135046;27;20047;-69
2023/05/06 02:30:13;;;;;;;6.93;5.93;;;;;;;;;;5135007;27;20051;-67
2023/05/06 02:32:40;;;;;;;9.95;6.85;;;;;;;;;;5135285;27;20096;-68
2023/05/06 02:35:08;;;;;;;8.73;5.95;;;;;;;;;;5134923;27;20047;-67
2023/05/06 02:37:35;;;;;;;8.45;5.97;;;;;;;;;;5134813;27;20070;-69
2023/05/06 02:40:03;;;;;;;7.65;5.72;;;;;;;;;;5134853;27;20072;-68
2023/05/06 02:42:30;;;;;;;7.88;5.10;;;;;;;;;;5134888;27;20500;-68
2023/05/06 02:44:58;;;;;;;6.90;5.20;;;;;;;;;;5134841;27;20043;-68
2023/05/06 02:47:25;;;;;;;6.72;5.32;;;;;;;;;;5135065;27;20051;-68
2023/05/06 02:49:51;;;;;;;9.15;5.78;;;;;;;;;;5134491;27;20051;-68
2023/05/06 02:52:18;;;;;;;7.40;5.38;;;;;;;;;;5134172;27;20511;-68
2023/05/06 02:54:46;;;;;;;7.03;5.57;;;;;;;;;;5135133;27;20051;-68
2023/05/06 02:57:12;;;;;;;8.73;4.88;;;;;;;;;;5134510;27;20496;-68
2023/05/06 02:59:39;;;;;;;6.45;4.93;;;;;;;;;;5134217;27;20047;-67
2023/05/06 03:02:07;;;;;;;6.35;5.03;;;;;;;;;;5134667;27;20096;-67
2023/05/06 03:04:34;;;;;;;6.88;5.25;;;;;;;;;;5133655;27;20087;-67
2023/05/06 03:07:01;;;;;;;6.75;4.50;;;;;;;;;;5134255;27;20043;-67
2023/05/06 03:09:28;;;;;;;6.32;4.25;;;;;;;;;;5134585;27;20449;-67
2023/05/06 03:11:56;;;;;;;5.72;4.25;;;;;;;;;;5134612;27;20111;-67
2023/05/06 03:14:22;;;;;;;7.20;4.50;;;;;;;;;;5134469;27;20051;-67
2023/05/06 03:16:49;;;;;;;6.03;4.25;;;;;;;;;;5133986;27;20043;-68
2023/05/06 03:19:17;;;;;;;6.93;4.70;;;;;;;;;;5134215;27;20483;-67
2023/05/06 03:21:44;;;;;;;5.55;4.07;;;;;;;;;;5134192;27;20043;-67
2023/05/06 03:24:11;;;;;;;7.43;4.72;;;;;;;;;;5134154;27;20487;-67
2023/05/06 03:26:38;;;;;;;5.70;3.97;;;;;;;;;;5133817;27;20043;-67
2023/05/06 03:29:05;;;;;;;5.60;4.00;;;;;;;;;;5133830;27;20059;-67
2023/05/06 03:31:31;;;;;;;7.38;4.15;;;;;;;;;;5133683;27;20051;-67
2023/05/06 03:33:58;;;;;;;6.03;4.45;;;;;;;;;;5133878;27;20047;-67
2023/05/06 03:36:27;;;;;;;7.13;4.60;;;;;;;;;;5133528;27;20051;-67
2023/05/06 03:38:54;;;;;;;7.80;4.18;;;;;;;;;;5133760;27;20587;-67
2023/05/06 03:41:21;;;;;;;6.43;4.32;;;;;;;;;;5133638;27;20092;-67
2023/05/06 03:43:48;;;;;;;7.60;4.40;;;;;;;;;;5133528;27;20563;-67
2023/05/06 03:46:14;;;;;;;7.72;4.20;;;;;;;;;;5133407;27;20444;-67
2023/05/06 03:48:41;;;;;;;7.65;4.60;;;;;;;;;;5133915;27;20051;-67
2023/05/06 03:51:08;;;;;;;7.32;4.72;;;;;;;;;;5127378;27;20044;-67
2023/05/06 03:53:36;;;;;;;6.60;5.20;;;;;;;;;;5112790;28;20047;-68
2023/05/06 03:56:03;;;;;;;8.82;5.68;;;;;;;;;;5112757;28;20054;-68
2023/05/06 03:58:30;;;;;;;7.00;5.43;;;;;;;;;;5112704;28;20293;-68
2023/05/06 04:00:59;;;;;;;7.25;5.82;;;;;;;;;;5112482;28;20048;-68
2023/05/06 04:03:26;;;;;;;8.10;6.53;;;;;;;;;;5112616;28;20138;-68
2023/05/06 04:05:53;;;;;;;7.85;6.43;;;;;;;;;;5112022;28;20047;-68
2023/05/06 04:08:19;;;;;;;9.25;5.53;;;;;;;;;;5112546;28;20044;-68
2023/05/06 04:10:48;;;;;;;7.25;5.22;;;;;;;;;;5112407;28;20488;-68
2023/05/06 04:13:14;;;;;;;6.53;5.15;;;;;;;;;;5112432;28;20561;-68
2023/05/06 04:15:41;;;;;;;6.90;4.95;;;;;;;;;;5116022;27;20050;-68
2023/05/06 04:18:08;;;;;;;6.72;4.95;;;;;;;;;;5133084;27;20063;-67
2023/05/06 04:20:35;;;;;;;7.72;4.90;;;;;;;;;;5132951;27;20050;-67
2023/05/06 04:23:02;;;;;;;6.40;4.88;;;;;;;;;;5133205;27;20396;-67
2023/05/06 04:25:28;;;;;;;6.13;4.50;;;;;;;;;;5132685;27;20046;-67
2023/05/06 04:27:57;;;;;;;7.25;4.55;;;;;;;;;;5132857;27;20055;-68
2023/05/06 04:30:24;;;;;;;5.88;4.30;;;;;;;;;;5133432;27;20051;-67
2023/05/06 04:32:51;;;;;;;6.47;4.43;;;;;;;;;;5132833;27;20138;-67
2023/05/06 04:35:18;;;;;;;5.53;3.95;;;;;;;;;;5132452;27;20088;-67
2023/05/06 04:37:44;;;;;;;6.75;5.07;;;;;;;;;;5132656;27;20365;-68
2023/05/06 04:40:13;;;;;;;6.60;4.70;;;;;;;;;;5132478;27;20083;-67
2023/05/06 04:42:40;;;;;;;6.57;4.38;;;;;;;;;;5132569;27;20043;-67
2023/05/06 04:45:10;;;;;;;5.38;3.83;;;;;;;;;;5132306;27;20039;-67
2023/05/06 04:47:37;;;;;;;8.13;4.43;;;;;;;;;;5126392;27;20043;-67
2023/05/06 04:50:04;;;;;;;5.82;3.50;;;;;;;;;;5124455;27;20051;-67
2023/05/06 04:52:31;;;;;;;4.53;3.50;;;;;;;;;;5121544;27;20035;-68
2023/05/06 04:54:58;;;;;;;6.40;3.83;;;;;;;;;;5122974;28;20491;-68
2023/05/06 04:57:24;;;;;;;5.30;3.70;;;;;;;;;;5131004;28;20100;-67
2023/05/06 04:59:51;;;;;;;6.50;4.28;;;;;;;;;;5117502;28;20044;-68
2023/05/06 05:02:19;;;;;;;4.93;3.63;;;;;;;;;;5122238;28;20035;-68
2023/05/06 05:04:46;;;;;;;5.20;3.20;;;;;;;;;;5122791;28;20047;-69
2023/05/06 05:07:13;;;;;;;6.55;4.10;;;;;;;;;;5122728;28;20380;-69
2023/05/06 05:09:40;;;;;;;5.47;4.13;;;;;;;;;;5130526;28;20050;-67
2023/05/06 05:12:07;;;;;;;5.30;3.85;;;;;;;;;;5132578;27;20051;-68
2023/05/06 05:14:33;;;;;;;6.07;3.88;;;;;;;;;;5132608;28;20047;-68
2023/05/06 05:17:00;;;;;;;6.55;4.07;;;;;;;;;;5132341;28;20117;-68
2023/05/06 05:19:28;;;;;;;6.68;4.68;;;;;;;;;;5132388;27;20055;-68
2023/05/06 05:21:55;;;;;;;5.38;4.10;;;;;;;;;;5120565;28;20135;-70
2023/05/06 05:24:23;;;;;;;7.28;4.85;;;;;;;;;;5131996;27;20553;-70
2023/05/06 05:26:49;;;;;;;6.10;4.32;;;;;;;;;;5132720;27;20051;-69
2023/05/06 05:29:17;;;;;;;6.18;4.07;;;;;;;;;;5136518;27;20058;-68
2023/05/06 05:31:43;;;;;;;6.13;4.18;;;;;;;;;;5136593;27;20055;-67
2023/05/06 05:34:10;;;;;;;5.55;4.35;;;;;;;;;;5146254;22;20099;-81
2023/05/06 05:36:38;;;;;;;6.88;5.30;;;;;;;;;;5116748;28;20062;-81
2023/05/06 05:39:04;;;;;;;6.97;4.78;;;;;;;;;;5120544;28;20490;-82
2023/05/06 05:41:31;;;;;;;5.93;4.70;;;;;;;;;;5124688;28;20481;-82
2023/05/06 05:43:58;;;;;;;6.03;4.47;;;;;;;;;;5129388;28;20082;-81
2023/05/06 05:46:24;;;;;;;7.38;4.43;;;;;;;;;;5133072;28;20545;-81
2023/05/06 05:48:51;;;;;;;6.57;4.40;;;;;;;;;;5133922;28;20074;-81
2023/05/06 05:51:17;;;;;;;7.90;4.45;;;;;;;;;;5128858;28;20289;-83
2023/05/06 05:53:45;;;;;;;6.70;4.47;;;;;;;;;;5123861;28;20039;-83
2023/05/06 05:56:12;;;;;;;6.50;4.63;;;;;;;;;;5123856;28;20048;-83
2023/05/06 05:58:39;;;;;;;6.18;4.57;;;;;;;;;;5123448;28;20044;-82
2023/05/06 06:01:05;;;;;;;7.35;4.50;;;;;;;;;;5122905;28;20481;-82
2023/05/06 06:03:32;;;;;;;6.50;4.40;;;;;;;;;;5104383;28;20414;-82
2023/05/06 06:05:59;;;;;;;6.65;4.63;;;;;;;;;;5102206;28;20058;-82
2023/05/06 06:08:26;;;;;;;7.05;4.43;;;;;;;;;;5100948;28;20058;-82
2023/05/06 06:10:54;;;;;;;6.60;4.32;;;;;;;;;;5102300;28;20048;-82
2023/05/06 06:13:20;;;;;;;5.70;3.70;;;;;;;;;;5101485;28;20079;-82
2023/05/06 06:15:47;;;;;;;5.90;3.78;;;;;;;;;;5102403;28;20410;-82
2023/05/06 06:18:13;;;;;;;6.07;4.05;;;;;;;;;;5105964;28;20055;-82
2023/05/06 06:20:40;;;;;;;5.80;4.30;;;;;;;;;;5111158;28;20154;-83
2023/05/06 06:23:06;;;;;;;5.63;3.90;;;;;;;;;;5110909;28;20052;-83
2023/05/06 06:25:33;;;;;;;6.97;4.90;;;;;;;;;;5105679;28;20135;-82
2023/05/06 06:28:01;;;;;;;7.07;4.40;;;;;;;;;;5102877;28;20127;-82
2023/05/06 06:30:28;;;;;;;6.95;4.25;;;;;;;;;;5102844;28;20040;-82
2023/05/06 06:32:55;;;;;;;6.10;4.30;;;;;;;;;;5101602;28;20066;-82
2023/05/06 06:35:22;;;;;;;6.85;4.50;;;;;;;;;;5111972;28;20040;-81
2023/05/06 06:37:49;;;;;;;7.75;4.88;;;;;;;;;;5116882;28;20063;-82
2023/05/06 06:40:16;;;;;;;6.35;4.30;;;;;;;;;;5102409;28;20118;-82
2023/05/06 06:42:42;;;;;;;8.82;5.38;;;;;;;;;;5109563;28;20140;-82
2023/05/06 06:45:11;;;;;;;8.98;5.82;;;;;;;;;;5116698;28;20059;-81
2023/05/06 06:47:38;;;;;;;7.65;5.85;;;;;;;;;;5110768;28;20056;-80
2023/05/06 06:50:05;;;;;;;6.97;5.55;;;;;;;;;;5107421;28;20047;-81
2023/05/06 06:52:41;;;;;;;7.60;5.60;;;;;;;;;;5106504;28;20140;-80
2023/05/06 06:55:09;;;;;;;9.63;6.53;;;;;;;;;;5108203;28;20051;-83
2023/05/06 06:57:36;;;;;;;8.50;6.45;;;;;;;;;;5111200;28;20059;-82
2023/05/06 07:00:04;;;;;;;8.57;6.30;;;;;;;;;;5099582;28;20131;-82
2023/05/06 07:02:32;;;;;;;9.30;6.93;;;;;;;;;;5099447;28;20050;-82
2023/05/06 07:04:58;;;;;;;10.13;7.05;;;;;;;;;;5098578;28;20044;-82
2023/05/06 07:07:25;;;;;;;8.45;6.82;;;;;;;;;;5098974;28;20048;-81
2023/05/06 07:09:51;;;;;;;7.97;6.50;;;;;;;;;;5098902;28;20108;-81
2023/05/06 07:12:18;;;;;;;8.25;6.38;;;;;;;;;;5101558;28;20052;-81
2023/05/06 07:14:45;;;;;;;10.10;7.10;;;;;;;;;;5102490;28;20082;-81
2023/05/06 07:17:11;;;;;;;10.52;7.13;;;;;;;;;;5101510;28;20075;-82
2023/05/06 07:19:39;;;;;;;10.70;7.70;;;;;;;;;;5098715;28;20494;-82
2023/05/06 07:22:06;;;;;;;12.02;8.88;;;;;;;;;;5097492;28;20403;-82
2023/05/06 07:24:33;;;;;;;10.65;8.10;;;;;;;;;;5097084;28;20040;-82
2023/05/06 07:27:00;;;;;;;9.27;6.97;;;;;;;;;;5096797;28;20103;-82
2023/05/06 07:29:27;;;;;;;9.98;7.55;;;;;;;;;;5097244;28;20135;-81
2023/05/06 07:31:54;;;;;;;8.93;7.00;;;;;;;;;;5097744;28;20048;-81
2023/05/06 07:34:20;;;;;;;10.20;7.75;;;;;;;;;;5097848;28;20399;-81
2023/05/06 07:36:49;;;;;;;10.60;6.95;;;;;;;;;;5096919;28;20422;-81
2023/05/06 07:39:16;;;;;;;9.50;8.15;;;;;;;;;;5097054;28;20051;-82
2023/05/06 07:41:42;;;;;;;8.90;6.72;;;;;;;;;;5096935;28;20111;-82
2023/05/06 07:44:10;;;;;;;9.65;7.20;;;;;;;;;;5097734;28;20040;-81
2023/05/06 07:46:37;;;;;;;8.38;6.88;;;;;;;;;;5096758;28;20054;-81
2023/05/06 07:49:04;;;;;;;15.98;10.60;;;;;;;;;;5096264;28;20532;-82
2023/05/06 07:51:31;;;;;;;9.50;6.97;;;;;;;;;;5095806;28;20056;-80
2023/05/06 07:54:02;;;;;;;20.23;15.90;;;;;;;;;;5095499;28;20048;-81
2023/05/06 07:56:29;;;;;;;7.75;6.07;;;;;;;;;;5095726;28;20054;-81
2023/05/06 07:58:55;;;;;;;9.20;6.20;;;;;;;;;;5097075;28;20044;-81
2023/05/06 08:01:22;;;;;;;8.80;6.10;;;;;;;;;;5095916;28;20078;-80
2023/05/06 08:03:49;;;;;;;8.23;5.85;;;;;;;;;;5095845;28;20040;-81
2023/05/06 08:06:16;;;;;;;8.55;7.18;;;;;;;;;;5095778;28;20044;-80
2023/05/06 08:08:42;;;;;;;8.05;6.88;;;;;;;;;;5095277;28;20071;-83
2023/05/06 08:11:10;;;;;;;8.15;6.88;;;;;;;;;;5099324;28;20127;-82
2023/05/06 08:13:37;;;;;;;8.75;7.32;;;;;;;;;;5103326;28;20081;-81
2023/05/06 08:16:05;;;;;;;7.90;6.68;;;;;;;;;;5105910;28;20055;-81
2023/05/06 08:18:32;;;;;;;8.45;6.55;;;;;;;;;;5103843;28;20047;-80
2023/05/06 08:20:58;;;;;;;7.63;5.90;;;;;;;;;;5096829;28;20136;-80
2023/05/06 08:23:25;;;;;;;7.88;5.55;;;;;;;;;;5096503;28;20147;-80
2023/05/06 08:25:52;;;;;;;11.82;9.55;;;;;;;;;;5096633;28;20040;-80
2023/05/06 08:28:20;;;;;;;8.85;6.93;;;;;;;;;;5096397;28;20067;-81
2023/05/06 08:30:50;;;;;;;7.25;6.40;;;;;;;;;;5098475;28;20070;-81
2023/05/06 08:33:16;;;;;;;6.90;5.72;;;;;;;;;;5100530;28;20048;-81
2023/05/06 08:35:43;;;;;;;8.95;6.97;;;;;;;;;;5106335;28;20044;-81
2023/05/06 08:38:10;;;;;;;11.35;5.55;;;;;;;;;;5103047;28;20044;-81
2023/05/06 08:40:42;;;;;;;7.40;5.22;;;;;;;;;;5096935;28;20540;-81
2023/05/06 08:43:14;;;;;;;6.50;5.22;;;;;;;;;;5103475;28;20108;-81
2023/05/06 08:45:42;;;;;;;9.93;6.90;;;;;;;;;;5117022;28;20044;-80
2023/05/06 08:48:09;;;;;;;10.27;7.65;;;;;;;;;;5110220;28;20052;-82
2023/05/06 08:50:40;;;;;;;8.10;6.18;;;;;;;;;;5098960;28;20048;-82
2023/05/06 08:53:07;;;;;;;7.85;6.15;;;;;;;;;;5096728;28;20266;-82
2023/05/06 08:55:35;;;;;;;11.25;8.68;;;;;;;;;;5096641;28;20495;-83
2023/05/06 08:58:02;;;;;;;7.90;5.75;;;;;;;;;;5094787;28;20501;-79
2023/05/06 09:00:29;;;;;;;7.03;5.35;;;;;;;;;;5096500;28;20048;-79
2023/05/06 09:02:57;;;;;;;6.70;4.85;;;;;;;;;;5098371;28;20048;-79
2023/05/06 09:05:24;;;;;;;7.95;4.80;;;;;;;;;;5101675;28;20048;-78
2023/05/06 09:07:51;;;;;;;6.95;4.82;;;;;;;;;;5101540;28;20052;-79
2023/05/06 09:10:18;;;;;;;8.00;5.28;;;;;;;;;;5101762;28;20068;-80
2023/05/06 09:12:44;;;;;;;7.97;4.30;;;;;;;;;;5102255;28;20044;-79
2023/05/06 09:15:16;;;;;;;6.45;4.63;;;;;;;;;;5113658;28;20058;-80
2023/05/06 09:17:43;;;;;;;5.28;4.38;;;;;;;;;;5115664;28;20070;-80
2023/05/06 09:20:13;;;;;;;15.18;8.13;;;;;;;;;;5109630;28;20107;-79
2023/05/06 09:22:39;;;;;;;9.10;5.88;;;;;;;;;;5101841;28;20168;-81
2023/05/06 09:25:07;;;;;;;6.60;5.38;;;;;;;;;;5102392;28;20066;-80
2023/05/06 09:27:36;;;;;;;7.13;4.25;;;;;;;;;;5101800;28;20501;-80
2023/05/06 09:30:04;;;;;;;6.15;4.18;;;;;;;;;;5102648;28;20727;-81
2023/05/06 09:32:31;;;;;;;6.07;4.43;;;;;;;;;;5102691;28;20075;-80
2023/05/06 09:34:58;;;;;;;6.35;4.40;;;;;;;;;;5101124;28;20492;-81
2023/05/06 09:37:26;;;;;;;7.63;4.47;;;;;;;;;;5099975;28;20059;-79
2023/05/06 09:39:54;;;;;;;6.70;5.07;;;;;;;;;;5100469;28;20420;-80
2023/05/06 09:42:23;;;;;;;5.60;4.47;;;;;;;;;;5100594;28;20071;-79
2023/05/06 09:44:53;;;;;;;6.95;5.47;;;;;;;;;;5100687;28;20486;-80
2023/05/06 09:47:20;;;;;;;8.83;5.87;;;;;;;;;;5100308;28;20046;-79
2023/05/06 09:49:47;;;;;;;6.35;4.57;;;;;;;;;;5100552;28;20044;-80
2023/05/06 09:52:14;;;;;;;6.22;4.35;;;;;;;;;;5101119;28;20528;-81
2023/05/06 09:54:43;;;;;;;6.60;5.70;;;;;;;;;;5102886;28;20051;-82
2023/05/06 09:57:12;;;;;;;6.05;4.95;;;;;;;;;;5110431;28;20059;-81
2023/05/06 09:59:40;;;;;;;7.75;5.88;;;;;;;;;;5106114;28;20044;-80
2023/05/06 10:02:08;;;;;;;6.82;5.68;;;;;;;;;;5100308;28;20048;-82
2023/05/06 10:04:37;;;;;;;10.25;6.40;;;;;;;;;;5098332;28;20054;-79
2023/05/06 10:07:04;;;;;;;6.10;4.25;;;;;;;;;;5100657;28;20055;-79
2023/05/06 10:09:32;;;;;;;6.22;4.45;;;;;;;;;;5102235;28;20138;-81
2023/05/06 10:12:01;;;;;;;8.18;4.72;;;;;;;;;;5103576;28;20043;-81
2023/05/06 10:14:27;;;;;;;5.35;4.35;;;;;;;;;;5104811;28;20048;-79
2023/05/06 10:16:54;;;;;;;5.20;3.85;;;;;;;;;;5100427;28;20562;-80
2023/05/06 10:19:24;;;;;;;4.80;3.95;;;;;;;;;;5101476;28;20130;-80
2023/05/06 10:21:56;;;;;;;6.60;3.50;;;;;;;;;;5103428;28;20040;-81
2023/05/06 10:24:31;;;;;;;5.60;3.50;;;;;;;;;;5104303;28;20052;-79
2023/05/06 10:27:02;;;;;;;3.67;2.95;;;;;;;;;;5103523;28;20050;-80
2023/05/06 10:29:29;;;;;;;4.00;2.83;;;;;;;;;;5102104;28;20487;-80
2023/05/06 10:31:57;;;;;;;4.25;3.10;;;;;;;;;;5102583;28;20052;-80
2023/05/06 10:34:25;;;;;;;5.85;3.60;;;;;;;;;;5101469;28;20143;-80
2023/05/06 10:36:56;;;;;;;5.20;3.40;;;;;;;;;;5100827;28;20056;-80
2023/05/06 10:39:23;;;;;;;4.78;3.47;;;;;;;;;;5099770;28;20423;-80
2023/05/06 10:41:50;;;;;;;5.80;4.13;;;;;;;;;;5099705;28;20127;-80
2023/05/06 10:44:18;;;;;;;6.85;4.30;;;;;;;;;;5100372;28;20044;-80
2023/05/06 10:46:58;;;;;;;5.47;4.03;;;;;;;;;;5100335;28;20087;-80
2023/05/06 10:49:25;;;;;;;5.43;3.95;;;;;;;;;;5100160;28;20518;-81
2023/05/06 10:52:10;;;;;;;4.40;3.63;;;;;;;;;;5100682;28;20079;-80
2023/05/06 10:54:48;;;;;;;4.85;3.33;;;;;;;;;;5097546;28;20106;-80
2023/05/06 10:57:14;;;;;;;5.20;3.40;;;;;;;;;;5096369;28;20455;-80
2023/05/06 10:59:46;;;;;;;4.93;3.47;;;;;;;;;;5100920;28;20044;-80
2023/05/06 11:02:14;;;;;;;5.63;3.92;;;;;;;;;;5101059;28;20048;-80
2023/05/06 11:04:40;;;;;;;4.68;3.85;;;;;;;;;;5100626;28;20052;-80
2023/05/06 11:07:08;;;;;;;4.97;3.75;;;;;;;;;;5100512;28;20116;-79
2023/05/06 11:09:53;;;;;;;7.00;4.00;;;;;;;;;;5101958;28;20044;-80
2023/05/06 11:12:20;;;;;;;7.20;4.50;;;;;;;;;;5102501;28;20409;-81
2023/05/06 11:14:49;;;;;;;4.90;3.42;;;;;;;;;;5102078;28;20054;-81
2023/05/06 11:17:30;;;;;;;8.13;5.47;;;;;;;;;;5101669;28;20111;-81
2023/05/06 11:20:17;;;;;;;5.32;3.78;;;;;;;;;;5108800;28;20398;-80
2023/05/06 11:22:44;;;;;;;4.20;3.22;;;;;;;;;;5105072;28;20066;-81
2023/05/06 11:25:11;;;;;;;4.07;3.15;;;;;;;;;;5100936;28;20575;-81
2023/05/06 11:27:38;;;;;;;4.78;3.08;;;;;;;;;;5100025;28;20044;-81
2023/05/06 11:30:12;;;;;;;4.25;2.60;;;;;;;;;;5100338;28;20082;-81
2023/05/06 11:32:42;;;;;;;5.03;2.70;;;;;;;;;;5099987;28;20510;-80
2023/05/06 11:35:09;;;;;;;5.40;2.92;;;;;;;;;;5100080;28;20044;-80
2023/05/06 11:37:36;;;;;;;5.18;3.45;;;;;;;;;;5100162;28;20070;-80
2023/05/06 11:40:14;;;;;;;4.78;3.67;;;;;;;;;;5099703;28;20085;-80
2023/05/06 11:42:41;;;;;;;4.65;3.40;;;;;;;;;;5099175;28;20052;-80
2023/05/06 11:45:11;;;;;;;4.80;3.10;;;;;;;;;;5102996;28;20067;-80
2023/05/06 11:47:44;;;;;;;7.22;4.10;;;;;;;;;;5086907;28;20047;-80
2023/05/06 11:50:11;;;;;;;5.00;3.13;;;;;;;;;;5086435;28;20041;-81
2023/05/06 11:52:37;;;;;;;7.65;4.35;;;;;;;;;;5091632;28;20103;-81
2023/05/06 11:55:09;;;;;;;6.90;3.58;;;;;;;;;;5083787;28;20054;-81
2023/05/06 11:57:36;;;;;;;4.65;2.90;;;;;;;;;;5083019;28;20048;-80
2023/05/06 12:00:03;;;;;;;4.95;3.15;;;;;;;;;;5084490;28;20054;-80
2023/05/06 12:02:31;;;;;;;4.70;3.38;;;;;;;;;;5093655;28;20047;-81
2023/05/06 12:04:58;;;;;;;4.22;2.85;;;;;;;;;;5106082;28;20510;-81
2023/05/06 12:07:25;;;;;;;4.20;2.90;;;;;;;;;;5107291;28;20048;-82
2023/05/06 12:09:52;;;;;;;5.90;3.38;;;;;;;;;;5101605;28;20048;-81
2023/05/06 12:12:21;;;;;;;4.45;2.55;;;;;;;;;;5101057;28;20103;-81
2023/05/06 12:14:49;;;;;;;4.75;2.85;;;;;;;;;;5100316;28;20511;-81
2023/05/06 12:17:16;;;;;;;4.80;2.90;;;;;;;;;;5100750;28;20070;-81
2023/05/06 12:19:45;;;;;;;4.75;3.60;;;;;;;;;;5100882;28;20481;-81
2023/05/06 12:22:19;;;;;;;5.23;3.20;;;;;;;;;;5100042;28;20047;-81
2023/05/06 12:24:46;;;;;;;5.13;2.83;;;;;;;;;;5099174;28;20364;-81
2023/05/06 12:27:13;;;;;;;4.43;3.08;;;;;;;;;;5098346;28;20487;-81
2023/05/06 12:29:39;;;;;;;4.50;3.28;;;;;;;;;;5098836;28;20048;-81
2023/05/06 12:32:08;;;;;;;4.63;3.17;;;;;;;;;;5100207;28;20147;-80
2023/05/06 12:34:39;;;;;;;5.03;2.90;;;;;;;;;;5105075;28;20101;-79
2023/05/06 12:37:08;;;;;;;4.18;3.20;;;;;;;;;;5102616;28;20044;-79
2023/05/06 12:39:35;;;;;;;5.55;3.03;;;;;;;;;;5102154;28;20052;-81
2023/05/06 12:42:02;;;;;;;5.18;3.15;;;;;;;;;;5099966;28;20044;-81
2023/05/06 12:44:33;;;;;;;4.60;2.75;;;;;;;;;;5099247;28;20044;-80
2023/05/06 12:47:01;;;;;;;4.95;2.90;;;;;;;;;;5097751;28;20099;-80
2023/05/06 12:49:28;;;;;;;7.70;4.97;;;;;;;;;;5097808;28;20048;-82
2023/05/06 12:52:09;;;;;;;5.95;3.22;;;;;;;;;;5098103;28;20054;-80
2023/05/06 12:54:36;;;;;;;5.03;3.08;;;;;;;;;;5097121;28;20048;-80
2023/05/06 12:57:04;;;;;;;3.78;2.45;;;;;;;;;;5097582;28;20062;-79
2023/05/06 12:59:31;;;;;;;5.57;3.47;;;;;;;;;;5098203;28;20056;-82
2023/05/06 13:01:57;;;;;;;5.30;2.70;;;;;;;;;;5097300;28;20421;-82
2023/05/06 13:04:26;;;;;;;7.60;3.60;;;;;;;;;;5096799;28;20135;-83
2023/05/06 13:06:53;;;;;;;4.72;2.95;;;;;;;;;;5096248;28;20050;-79
2023/05/06 13:09:21;;;;;;;3.80;2.60;;;;;;;;;;5098256;28;20044;-79
2023/05/06 13:11:47;;;;;;;3.70;2.30;;;;;;;;;;5098163;28;20070;-80
2023/05/06 13:14:15;;;;;;;4.60;2.53;;;;;;;;;;5099741;28;20048;-80
2023/05/06 13:16:42;;;;;;;4.00;2.40;;;;;;;;;;5100242;28;20419;-81
2023/05/06 13:19:09;;;;;;;3.78;2.10;;;;;;;;;;5099943;28;20072;-80
2023/05/06 13:21:36;;;;;;;3.70;2.40;;;;;;;;;;5098548;28;20050;-79
2023/05/06 13:24:04;;;;;;;3.80;2.60;;;;;;;;;;5097337;28;20044;-79
2023/05/06 13:26:32;;;;;;;3.35;2.60;;;;;;;;;;5097967;28;20050;-79
2023/05/06 13:28:59;;;;;;;5.07;3.55;;;;;;;;;;5099098;28;20491;-80
2023/05/06 13:31:27;;;;;;;5.43;2.72;;;;;;;;;;5098987;28;20127;-81
2023/05/06 13:33:53;;;;;;;4.43;2.80;;;;;;;;;;5098855;28;20108;-81
2023/05/06 13:36:20;;;;;;;5.57;3.00;;;;;;;;;;5098496;28;20087;-80
2023/05/06 13:38:47;;;;;;;4.32;2.90;;;;;;;;;;5099314;28;20059;-79
2023/05/06 13:41:14;;;;;;;3.60;2.75;;;;;;;;;;5100202;28;20051;-81
2023/05/06 13:43:42;;;;;;;4.10;2.90;;;;;;;;;;5095351;28;20128;-80
2023/05/06 13:46:09;;;;;;;3.72;2.60;;;;;;;;;;5097530;28;20051;-80
2023/05/06 13:48:35;;;;;;;3.70;2.25;;;;;;;;;;5098130;28;20048;-80
2023/05/06 13:51:02;;;;;;;5.50;2.63;;;;;;;;;;5100855;28;20479;-80
2023/05/06 13:53:29;;;;;;;3.75;2.40;;;;;;;;;;5109333;28;20079;-79
2023/05/06 13:55:55;;;;;;;4.60;2.90;;;;;;;;;;5106212;28;20052;-80
2023/05/06 13:58:22;;;;;;;6.68;3.75;;;;;;;;;;5103235;28;20044;-78
2023/05/06 14:00:50;;;;;;;3.55;2.50;;;;;;;;;;5106236;28;20517;-80
2023/05/06 14:03:16;;;;;;;9.63;5.75;;;;;;;;;;5104575;28;20040;-80
2023/05/06 14:05:43;;;;;;;6.22;3.53;;;;;;;;;;5099619;28;20048;-79
2023/05/06 14:08:09;;;;;;;6.32;3.85;;;;;;;;;;5098095;28;20093;-80
2023/05/06 14:10:36;;;;;;;4.97;2.75;;;;;;;;;;5098955;28;20093;-79
2023/05/06 14:13:03;;;;;;;4.63;2.85;;;;;;;;;;5098894;28;20040;-79
2023/05/06 14:15:29;;;;;;;5.05;3.10;;;;;;;;;;5100512;28;20040;-80
2023/05/06 14:17:57;;;;;;;3.35;1.95;;;;;;;;;;5099473;28;20052;-79
2023/05/06 14:20:25;;;;;;;4.05;2.25;;;;;;;;;;5101477;28;20048;-80
2023/05/06 14:22:54;;;;;;;4.05;2.08;;;;;;;;;;5101050;28;20134;-80
2023/05/06 14:25:25;;;;;;;3.85;2.10;;;;;;;;;;5102981;28;20123;-79
2023/05/06 14:27:58;;;;;;;4.93;2.35;;;;;;;;;;5100966;28;20491;-78
2023/05/06 14:30:29;;;;;;;5.15;2.50;;;;;;;;;;5103023;28;20048;-78
2023/05/06 14:32:58;;;;;;;3.70;1.75;;;;;;;;;;5102041;28;20071;-79
2023/05/06 14:35:25;;;;;;;3.25;1.60;;;;;;;;;;5099398;28;20052;-79
2023/05/06 14:37:52;;;;;;;4.35;2.20;;;;;;;;;;5098898;28;20098;-79
2023/05/06 14:40:19;;;;;;;3.03;2.00;;;;;;;;;;5099084;28;20481;-79
2023/05/06 14:42:46;;;;;;;4.10;2.00;;;;;;;;;;5100291;28;20512;-81
2023/05/06 14:45:14;;;;;;;4.68;2.20;;;;;;;;;;5100746;28;20703;-81
2023/05/06 14:47:41;;;;;;;3.88;2.20;;;;;;;;;;5102768;28;20044;-81